sensor_id;sensor_type;location;lat;lon;timestamp;P1;durP1;ratioP1;P2;durP2;ratioP2
65234;SDS011;51820;48.374;10.930;2024-01-30T00:01:26;21.58;;;10.07;;
65234;SDS011;51820;48.374;10.930;2024-01-30T00:04:00;20.77;;;10.05;;
65234;SDS011;51820;48.374;10.930;2024-01-30T00:06:29;21.38;;;10.52;;
65234;SDS011;51820;48.374;10.930;2024-01-30T00:08:58;18.17;;;9.55;;
65234;SDS011;51820;48.374;10.930;2024-01-30T00:11:26;19.70;;;10.05;;
65234;SDS011;51820;48.374;10.930;2024-01-30T00:13:55;20.88;;;9.93;;
65234;SDS011;51820;48.374;10.930;2024-01-30T00:16:24;24.50;;;10.88;;
65234;SDS011;51820;48.374;10.930;2024-01-30T00:18:52;21.45;;;10.63;;
65234;SDS011;51820;48.374;10.930;2024-01-30T00:21:24;22.42;;;10.35;;
65234;SDS011;51820;48.374;10.930;2024-01-30T00:23:58;24.15;;;11.18;;
65234;SDS011;51820;48.374;10.930;2024-01-30T00:26:30;21.75;;;10.27;;
65234;SDS011;51820;48.374;10.930;2024-01-30T00:28:58;24.50;;;9.65;;
65234;SDS011;51820;48.374;10.930;2024-01-30T00:31:27;22.05;;;11.02;;
65234;SDS011;51820;48.374;10.930;2024-01-30T00:33:55;24.80;;;11.82;;
65234;SDS011;51820;48.374;10.930;2024-01-30T00:36:24;22.25;;;11.88;;
65234;SDS011;51820;48.374;10.930;2024-01-30T00:38:53;26.00;;;12.02;;
65234;SDS011;51820;48.374;10.930;2024-01-30T00:41:23;22.77;;;11.88;;
65234;SDS011;51820;48.374;10.930;2024-01-30T00:43:51;22.35;;;10.10;;
65234;SDS011;51820;48.374;10.930;2024-01-30T00:46:20;21.67;;;10.77;;
65234;SDS011;51820;48.374;10.930;2024-01-30T00:48:48;25.73;;;11.48;;
65234;SDS011;51820;48.374;10.930;2024-01-30T00:51:17;28.73;;;11.45;;
65234;SDS011;51820;48.374;10.930;2024-01-30T00:53:49;23.05;;;10.32;;
65234;SDS011;51820;48.374;10.930;2024-01-30T00:56:18;21.35;;;9.18;;
65234;SDS011;51820;48.374;10.930;2024-01-30T00:58:56;19.15;;;9.18;;
65234;SDS011;51820;48.374;10.930;2024-01-30T01:01:24;23.98;;;9.02;;
65234;SDS011;51820;48.374;10.930;2024-01-30T01:03:53;19.63;;;8.88;;
65234;SDS011;51820;48.374;10.930;2024-01-30T01:06:26;17.05;;;8.40;;
65234;SDS011;51820;48.374;10.930;2024-01-30T01:08:54;17.52;;;8.25;;
65234;SDS011;51820;48.374;10.930;2024-01-30T01:11:30;18.08;;;8.40;;
65234;SDS011;51820;48.374;10.930;2024-01-30T01:14:02;29.48;;;9.13;;
65234;SDS011;51820;48.374;10.930;2024-01-30T01:16:30;16.92;;;8.65;;
65234;SDS011;51820;48.374;10.930;2024-01-30T01:18:59;17.95;;;8.52;;
65234;SDS011;51820;48.374;10.930;2024-01-30T01:21:28;19.92;;;8.60;;
65234;SDS011;51820;48.374;10.930;2024-01-30T01:23:59;19.67;;;8.85;;
65234;SDS011;51820;48.374;10.930;2024-01-30T01:26:30;18.83;;;8.80;;
65234;SDS011;51820;48.374;10.930;2024-01-30T01:28:58;15.35;;;9.20;;
65234;SDS011;51820;48.374;10.930;2024-01-30T01:31:28;18.67;;;8.85;;
65234;SDS011;51820;48.374;10.930;2024-01-30T01:33:58;17.88;;;8.70;;
65234;SDS011;51820;48.374;10.930;2024-01-30T01:36:27;16.95;;;8.57;;
65234;SDS011;51820;48.374;10.930;2024-01-30T01:38:56;19.20;;;8.60;;
65234;SDS011;51820;48.374;10.930;2024-01-30T01:41:24;19.30;;;8.55;;
65234;SDS011;51820;48.374;10.930;2024-01-30T01:43:53;16.30;;;7.68;;
65234;SDS011;51820;48.374;10.930;2024-01-30T01:46:22;15.52;;;7.35;;
65234;SDS011;51820;48.374;10.930;2024-01-30T01:48:51;20.17;;;8.10;;
65234;SDS011;51820;48.374;10.930;2024-01-30T01:51:23;17.55;;;8.85;;
65234;SDS011;51820;48.374;10.930;2024-01-30T01:53:54;19.00;;;8.15;;
65234;SDS011;51820;48.374;10.930;2024-01-30T01:56:31;17.48;;;8.00;;
65234;SDS011;51820;48.374;10.930;2024-01-30T01:59:04;14.13;;;7.78;;
65234;SDS011;51820;48.374;10.930;2024-01-30T02:01:34;20.75;;;8.90;;
65234;SDS011;51820;48.374;10.930;2024-01-30T02:04:06;14.52;;;6.90;;
65234;SDS011;51820;48.374;10.930;2024-01-30T02:06:35;17.35;;;7.80;;
65234;SDS011;51820;48.374;10.930;2024-01-30T02:09:05;15.73;;;7.75;;
65234;SDS011;51820;48.374;10.930;2024-01-30T02:11:35;16.27;;;7.57;;
65234;SDS011;51820;48.374;10.930;2024-01-30T02:14:04;18.73;;;8.30;;
65234;SDS011;51820;48.374;10.930;2024-01-30T02:16:32;18.40;;;7.97;;
65234;SDS011;51820;48.374;10.930;2024-01-30T02:19:03;16.92;;;7.70;;
65234;SDS011;51820;48.374;10.930;2024-01-30T02:21:34;16.48;;;6.97;;
65234;SDS011;51820;48.374;10.930;2024-01-30T02:24:05;15.07;;;7.30;;
65234;SDS011;51820;48.374;10.930;2024-01-30T02:26:33;18.70;;;7.40;;
65234;SDS011;51820;48.374;10.930;2024-01-30T02:29:02;16.77;;;7.50;;
65234;SDS011;51820;48.374;10.930;2024-01-30T02:31:30;17.98;;;6.80;;
65234;SDS011;51820;48.374;10.930;2024-01-30T02:33:58;19.67;;;7.03;;
65234;SDS011;51820;48.374;10.930;2024-01-30T02:36:29;13.80;;;6.78;;
65234;SDS011;51820;48.374;10.930;2024-01-30T02:38:59;16.92;;;7.00;;
65234;SDS011;51820;48.374;10.930;2024-01-30T02:41:27;15.13;;;7.38;;
65234;SDS011;51820;48.374;10.930;2024-01-30T02:43:58;15.07;;;7.85;;
65234;SDS011;51820;48.374;10.930;2024-01-30T02:46:27;15.18;;;6.80;;
65234;SDS011;51820;48.374;10.930;2024-01-30T02:48:56;16.65;;;7.15;;
65234;SDS011;51820;48.374;10.930;2024-01-30T02:51:24;15.48;;;7.00;;
65234;SDS011;51820;48.374;10.930;2024-01-30T02:53:53;13.77;;;6.28;;
65234;SDS011;51820;48.374;10.930;2024-01-30T02:56:23;16.23;;;6.68;;
65234;SDS011;51820;48.374;10.930;2024-01-30T02:58:51;15.18;;;6.68;;
65234;SDS011;51820;48.374;10.930;2024-01-30T03:01:19;12.80;;;6.45;;
65234;SDS011;51820;48.374;10.930;2024-01-30T03:03:48;14.02;;;6.40;;
65234;SDS011;51820;48.374;10.930;2024-01-30T03:06:16;17.63;;;6.40;;
65234;SDS011;51820;48.374;10.930;2024-01-30T03:08:46;12.10;;;5.70;;
65234;SDS011;51820;48.374;10.930;2024-01-30T03:11:15;17.27;;;6.85;;
65234;SDS011;51820;48.374;10.930;2024-01-30T03:13:44;15.60;;;6.22;;
65234;SDS011;51820;48.374;10.930;2024-01-30T03:16:12;14.98;;;6.45;;
65234;SDS011;51820;48.374;10.930;2024-01-30T03:18:41;13.80;;;5.90;;
65234;SDS011;51820;48.374;10.930;2024-01-30T03:21:10;13.30;;;5.50;;
65234;SDS011;51820;48.374;10.930;2024-01-30T03:23:38;14.40;;;6.05;;
65234;SDS011;51820;48.374;10.930;2024-01-30T03:26:07;12.55;;;5.80;;
65234;SDS011;51820;48.374;10.930;2024-01-30T03:29:23;16.67;;;6.18;;
65234;SDS011;51820;48.374;10.930;2024-01-30T03:32:01;11.23;;;5.78;;
65234;SDS011;51820;48.374;10.930;2024-01-30T03:34:30;12.77;;;5.60;;
65234;SDS011;51820;48.374;10.930;2024-01-30T03:36:59;11.57;;;5.55;;
65234;SDS011;51820;48.374;10.930;2024-01-30T03:39:27;12.18;;;5.93;;
65234;SDS011;51820;48.374;10.930;2024-01-30T03:41:56;12.85;;;6.28;;
65234;SDS011;51820;48.374;10.930;2024-01-30T03:44:26;16.05;;;5.90;;
65234;SDS011;51820;48.374;10.930;2024-01-30T03:46:54;13.23;;;5.55;;
65234;SDS011;51820;48.374;10.930;2024-01-30T03:49:23;12.45;;;5.68;;
65234;SDS011;51820;48.374;10.930;2024-01-30T03:51:51;14.93;;;6.00;;
65234;SDS011;51820;48.374;10.930;2024-01-30T03:54:20;14.50;;;6.38;;
65234;SDS011;51820;48.374;10.930;2024-01-30T03:56:48;13.10;;;6.50;;
65234;SDS011;51820;48.374;10.930;2024-01-30T03:59:17;14.48;;;6.20;;
65234;SDS011;51820;48.374;10.930;2024-01-30T04:01:52;15.70;;;6.28;;
65234;SDS011;51820;48.374;10.930;2024-01-30T04:04:20;13.77;;;6.30;;
65234;SDS011;51820;48.374;10.930;2024-01-30T04:06:49;15.15;;;6.32;;
65234;SDS011;51820;48.374;10.930;2024-01-30T04:09:18;15.50;;;5.72;;
65234;SDS011;51820;48.374;10.930;2024-01-30T04:11:46;16.30;;;5.78;;
65234;SDS011;51820;48.374;10.930;2024-01-30T04:14:15;12.82;;;5.80;;
65234;SDS011;51820;48.374;10.930;2024-01-30T04:16:43;17.45;;;6.45;;
65234;SDS011;51820;48.374;10.930;2024-01-30T04:19:13;12.13;;;5.70;;
65234;SDS011;51820;48.374;10.930;2024-01-30T04:21:41;12.45;;;4.85;;
65234;SDS011;51820;48.374;10.930;2024-01-30T04:24:10;14.80;;;6.15;;
65234;SDS011;51820;48.374;10.930;2024-01-30T04:26:39;10.13;;;5.38;;
65234;SDS011;51820;48.374;10.930;2024-01-30T04:29:07;13.65;;;6.15;;
65234;SDS011;51820;48.374;10.930;2024-01-30T04:31:36;12.70;;;5.88;;
65234;SDS011;51820;48.374;10.930;2024-01-30T04:34:04;14.40;;;6.00;;
65234;SDS011;51820;48.374;10.930;2024-01-30T04:36:34;13.57;;;5.15;;
65234;SDS011;51820;48.374;10.930;2024-01-30T04:39:02;12.85;;;5.93;;
65234;SDS011;51820;48.374;10.930;2024-01-30T04:41:31;14.20;;;5.97;;
65234;SDS011;51820;48.374;10.930;2024-01-30T04:44:00;10.88;;;4.95;;
65234;SDS011;51820;48.374;10.930;2024-01-30T04:46:28;14.55;;;5.90;;
65234;SDS011;51820;48.374;10.930;2024-01-30T04:48:57;12.50;;;5.90;;
65234;SDS011;51820;48.374;10.930;2024-01-30T04:51:26;12.35;;;5.70;;
65234;SDS011;51820;48.374;10.930;2024-01-30T04:53:55;13.02;;;5.53;;
65234;SDS011;51820;48.374;10.930;2024-01-30T04:56:24;13.85;;;5.93;;
65234;SDS011;51820;48.374;10.930;2024-01-30T04:58:52;13.18;;;5.90;;
65234;SDS011;51820;48.374;10.930;2024-01-30T05:01:21;11.73;;;5.28;;
65234;SDS011;51820;48.374;10.930;2024-01-30T05:03:49;11.68;;;5.43;;
65234;SDS011;51820;48.374;10.930;2024-01-30T05:06:23;13.98;;;5.55;;
65234;SDS011;51820;48.374;10.930;2024-01-30T05:08:52;14.18;;;5.32;;
65234;SDS011;51820;48.374;10.930;2024-01-30T05:11:22;15.13;;;6.30;;
65234;SDS011;51820;48.374;10.930;2024-01-30T05:13:51;14.25;;;6.53;;
65234;SDS011;51820;48.374;10.930;2024-01-30T05:16:19;16.38;;;6.68;;
65234;SDS011;51820;48.374;10.930;2024-01-30T05:18:48;12.35;;;6.00;;
65234;SDS011;51820;48.374;10.930;2024-01-30T05:21:16;13.32;;;6.07;;
65234;SDS011;51820;48.374;10.930;2024-01-30T05:23:45;11.50;;;5.57;;
65234;SDS011;51820;48.374;10.930;2024-01-30T05:26:13;12.90;;;5.45;;
65234;SDS011;51820;48.374;10.930;2024-01-30T05:28:43;16.15;;;6.95;;
65234;SDS011;51820;48.374;10.930;2024-01-30T05:31:12;14.20;;;7.07;;
65234;SDS011;51820;48.374;10.930;2024-01-30T05:33:40;12.32;;;5.60;;
65234;SDS011;51820;48.374;10.930;2024-01-30T05:36:11;13.60;;;5.65;;
65234;SDS011;51820;48.374;10.930;2024-01-30T05:38:39;11.82;;;5.72;;
65234;SDS011;51820;48.374;10.930;2024-01-30T05:41:08;13.48;;;5.30;;
65234;SDS011;51820;48.374;10.930;2024-01-30T05:43:37;12.13;;;5.40;;
65234;SDS011;51820;48.374;10.930;2024-01-30T05:46:07;10.85;;;5.00;;
65234;SDS011;51820;48.374;10.930;2024-01-30T05:48:36;11.82;;;5.60;;
65234;SDS011;51820;48.374;10.930;2024-01-30T05:51:04;11.40;;;5.15;;
65234;SDS011;51820;48.374;10.930;2024-01-30T05:53:33;15.50;;;4.90;;
65234;SDS011;51820;48.374;10.930;2024-01-30T05:56:02;12.63;;;5.05;;
65234;SDS011;51820;48.374;10.930;2024-01-30T05:58:30;10.38;;;4.75;;
65234;SDS011;51820;48.374;10.930;2024-01-30T06:00:59;11.65;;;4.82;;
65234;SDS011;51820;48.374;10.930;2024-01-30T06:03:29;13.32;;;5.40;;
65234;SDS011;51820;48.374;10.930;2024-01-30T06:05:57;10.50;;;4.38;;
65234;SDS011;51820;48.374;10.930;2024-01-30T06:08:26;8.25;;;3.92;;
65234;SDS011;51820;48.374;10.930;2024-01-30T06:10:54;12.15;;;4.97;;
65234;SDS011;51820;48.374;10.930;2024-01-30T06:13:22;10.95;;;4.13;;
65234;SDS011;51820;48.374;10.930;2024-01-30T06:15:51;11.95;;;4.32;;
65234;SDS011;51820;48.374;10.930;2024-01-30T06:18:20;12.32;;;4.32;;
65234;SDS011;51820;48.374;10.930;2024-01-30T06:20:50;28.48;;;11.95;;
65234;SDS011;51820;48.374;10.930;2024-01-30T06:23:18;22.15;;;9.43;;
65234;SDS011;51820;48.374;10.930;2024-01-30T06:25:46;35.80;;;16.13;;
65234;SDS011;51820;48.374;10.930;2024-01-30T06:28:15;18.35;;;6.05;;
65234;SDS011;51820;48.374;10.930;2024-01-30T06:30:44;17.00;;;5.38;;
65234;SDS011;51820;48.374;10.930;2024-01-30T06:33:12;11.20;;;5.15;;
65234;SDS011;51820;48.374;10.930;2024-01-30T06:35:41;9.82;;;4.57;;
65234;SDS011;51820;48.374;10.930;2024-01-30T06:38:13;12.73;;;5.40;;
65234;SDS011;51820;48.374;10.930;2024-01-30T06:40:42;12.85;;;4.90;;
65234;SDS011;51820;48.374;10.930;2024-01-30T06:43:10;11.15;;;4.68;;
65234;SDS011;51820;48.374;10.930;2024-01-30T06:45:39;10.85;;;5.45;;
65234;SDS011;51820;48.374;10.930;2024-01-30T06:48:09;15.18;;;5.45;;
65234;SDS011;51820;48.374;10.930;2024-01-30T06:50:37;14.73;;;6.38;;
65234;SDS011;51820;48.374;10.930;2024-01-30T06:53:06;13.18;;;5.78;;
65234;SDS011;51820;48.374;10.930;2024-01-30T06:55:36;11.75;;;5.32;;
65234;SDS011;51820;48.374;10.930;2024-01-30T06:58:04;12.73;;;5.88;;
65234;SDS011;51820;48.374;10.930;2024-01-30T07:00:33;13.13;;;5.50;;
65234;SDS011;51820;48.374;10.930;2024-01-30T07:03:02;15.82;;;5.22;;
65234;SDS011;51820;48.374;10.930;2024-01-30T07:05:31;12.02;;;4.80;;
65234;SDS011;51820;48.374;10.930;2024-01-30T07:08:01;12.77;;;5.55;;
65234;SDS011;51820;48.374;10.930;2024-01-30T07:10:30;16.95;;;5.82;;
65234;SDS011;51820;48.374;10.930;2024-01-30T07:13:01;14.15;;;6.25;;
65234;SDS011;51820;48.374;10.930;2024-01-30T07:15:30;16.00;;;6.25;;
65234;SDS011;51820;48.374;10.930;2024-01-30T07:17:59;19.23;;;7.47;;
65234;SDS011;51820;48.374;10.930;2024-01-30T07:20:27;16.50;;;6.18;;
65234;SDS011;51820;48.374;10.930;2024-01-30T07:22:57;15.02;;;6.30;;
65234;SDS011;51820;48.374;10.930;2024-01-30T07:25:25;14.65;;;6.68;;
65234;SDS011;51820;48.374;10.930;2024-01-30T07:27:56;11.90;;;6.10;;
65234;SDS011;51820;48.374;10.930;2024-01-30T07:30:26;15.32;;;6.78;;
65234;SDS011;51820;48.374;10.930;2024-01-30T07:32:54;15.75;;;6.47;;
65234;SDS011;51820;48.374;10.930;2024-01-30T07:35:23;15.50;;;6.68;;
65234;SDS011;51820;48.374;10.930;2024-01-30T07:37:51;17.35;;;6.78;;
65234;SDS011;51820;48.374;10.930;2024-01-30T07:40:20;13.25;;;6.65;;
65234;SDS011;51820;48.374;10.930;2024-01-30T07:42:48;13.70;;;5.40;;
65234;SDS011;51820;48.374;10.930;2024-01-30T07:45:17;11.25;;;4.90;;
65234;SDS011;51820;48.374;10.930;2024-01-30T07:47:50;15.68;;;4.78;;
65234;SDS011;51820;48.374;10.930;2024-01-30T07:50:19;11.23;;;4.63;;
65234;SDS011;51820;48.374;10.930;2024-01-30T07:52:47;15.38;;;4.97;;
65234;SDS011;51820;48.374;10.930;2024-01-30T07:55:17;8.52;;;4.20;;
65234;SDS011;51820;48.374;10.930;2024-01-30T07:57:47;12.63;;;4.85;;
65234;SDS011;51820;48.374;10.930;2024-01-30T08:00:18;10.55;;;4.40;;
65234;SDS011;51820;48.374;10.930;2024-01-30T08:02:47;12.02;;;4.88;;
65234;SDS011;51820;48.374;10.930;2024-01-30T08:05:17;12.60;;;4.53;;
65234;SDS011;51820;48.374;10.930;2024-01-30T08:07:46;11.40;;;4.53;;
65234;SDS011;51820;48.374;10.930;2024-01-30T08:10:14;12.40;;;4.53;;
65234;SDS011;51820;48.374;10.930;2024-01-30T08:12:44;12.80;;;4.43;;
65234;SDS011;51820;48.374;10.930;2024-01-30T08:15:13;12.15;;;5.07;;
65234;SDS011;51820;48.374;10.930;2024-01-30T08:17:42;10.65;;;4.22;;
65234;SDS011;51820;48.374;10.930;2024-01-30T08:20:11;11.80;;;4.50;;
65234;SDS011;51820;48.374;10.930;2024-01-30T08:22:42;12.77;;;4.40;;
65234;SDS011;51820;48.374;10.930;2024-01-30T08:25:10;11.52;;;4.45;;
65234;SDS011;51820;48.374;10.930;2024-01-30T08:27:40;9.38;;;3.90;;
65234;SDS011;51820;48.374;10.930;2024-01-30T08:30:09;9.48;;;4.00;;
65234;SDS011;51820;48.374;10.930;2024-01-30T08:32:37;9.80;;;4.28;;
65234;SDS011;51820;48.374;10.930;2024-01-30T08:35:08;8.57;;;3.75;;
65234;SDS011;51820;48.374;10.930;2024-01-30T08:37:42;15.48;;;4.40;;
65234;SDS011;51820;48.374;10.930;2024-01-30T08:40:11;10.05;;;4.20;;
65234;SDS011;51820;48.374;10.930;2024-01-30T08:42:40;10.40;;;4.53;;
65234;SDS011;51820;48.374;10.930;2024-01-30T08:45:09;13.90;;;4.68;;
65234;SDS011;51820;48.374;10.930;2024-01-30T08:47:37;8.95;;;3.97;;
65234;SDS011;51820;48.374;10.930;2024-01-30T08:50:07;9.75;;;3.92;;
65234;SDS011;51820;48.374;10.930;2024-01-30T08:52:36;11.07;;;4.55;;
65234;SDS011;51820;48.374;10.930;2024-01-30T08:55:06;10.35;;;4.63;;
65234;SDS011;51820;48.374;10.930;2024-01-30T08:57:35;8.07;;;4.00;;
65234;SDS011;51820;48.374;10.930;2024-01-30T09:00:04;9.30;;;4.30;;
65234;SDS011;51820;48.374;10.930;2024-01-30T09:02:35;9.65;;;4.22;;
65234;SDS011;51820;48.374;10.930;2024-01-30T09:05:04;11.25;;;4.32;;
65234;SDS011;51820;48.374;10.930;2024-01-30T09:07:33;8.70;;;3.40;;
65234;SDS011;51820;48.374;10.930;2024-01-30T09:10:02;10.68;;;3.70;;
65234;SDS011;51820;48.374;10.930;2024-01-30T09:12:32;13.75;;;4.38;;
65234;SDS011;51820;48.374;10.930;2024-01-30T09:15:03;15.38;;;5.00;;
65234;SDS011;51820;48.374;10.930;2024-01-30T09:17:32;12.25;;;5.15;;
65234;SDS011;51820;48.374;10.930;2024-01-30T09:20:00;11.80;;;5.35;;
65234;SDS011;51820;48.374;10.930;2024-01-30T09:22:29;9.95;;;3.72;;
65234;SDS011;51820;48.374;10.930;2024-01-30T09:24:58;8.15;;;3.80;;
65234;SDS011;51820;48.374;10.930;2024-01-30T09:27:26;9.45;;;3.13;;
65234;SDS011;51820;48.374;10.930;2024-01-30T09:29:56;8.73;;;3.40;;
65234;SDS011;51820;48.374;10.930;2024-01-30T09:32:24;9.13;;;3.40;;
65234;SDS011;51820;48.374;10.930;2024-01-30T09:34:53;7.78;;;3.50;;
65234;SDS011;51820;48.374;10.930;2024-01-30T09:37:22;10.30;;;4.13;;
65234;SDS011;51820;48.374;10.930;2024-01-30T09:39:53;14.13;;;4.82;;
65234;SDS011;51820;48.374;10.930;2024-01-30T09:42:25;10.55;;;4.47;;
65234;SDS011;51820;48.374;10.930;2024-01-30T09:45:00;8.40;;;3.85;;
65234;SDS011;51820;48.374;10.930;2024-01-30T09:47:30;8.43;;;4.40;;
65234;SDS011;51820;48.374;10.930;2024-01-30T09:49:59;9.02;;;4.40;;
65234;SDS011;51820;48.374;10.930;2024-01-30T09:52:32;12.73;;;5.07;;
65234;SDS011;51820;48.374;10.930;2024-01-30T09:55:04;11.52;;;4.90;;
65234;SDS011;51820;48.374;10.930;2024-01-30T09:57:32;9.65;;;4.15;;
65234;SDS011;51820;48.374;10.930;2024-01-30T10:00:02;10.23;;;4.53;;
65234;SDS011;51820;48.374;10.930;2024-01-30T10:02:38;8.13;;;3.95;;
65234;SDS011;51820;48.374;10.930;2024-01-30T10:05:07;9.32;;;4.00;;
65234;SDS011;51820;48.374;10.930;2024-01-30T10:07:39;10.88;;;4.63;;
65234;SDS011;51820;48.374;10.930;2024-01-30T10:10:18;8.43;;;4.00;;
65234;SDS011;51820;48.374;10.930;2024-01-30T10:12:47;10.50;;;4.13;;
65234;SDS011;51820;48.374;10.930;2024-01-30T10:15:16;10.00;;;4.15;;
65234;SDS011;51820;48.374;10.930;2024-01-30T10:17:45;9.55;;;4.05;;
65234;SDS011;51820;48.374;10.930;2024-01-30T10:20:14;11.00;;;4.32;;
65234;SDS011;51820;48.374;10.930;2024-01-30T10:22:44;10.77;;;4.70;;
65234;SDS011;51820;48.374;10.930;2024-01-30T10:25:12;10.00;;;4.10;;
65234;SDS011;51820;48.374;10.930;2024-01-30T10:27:41;16.60;;;4.18;;
65234;SDS011;51820;48.374;10.930;2024-01-30T10:30:10;9.45;;;4.53;;
65234;SDS011;51820;48.374;10.930;2024-01-30T10:32:39;10.38;;;4.57;;
65234;SDS011;51820;48.374;10.930;2024-01-30T10:35:08;10.77;;;4.60;;
65234;SDS011;51820;48.374;10.930;2024-01-30T10:37:37;9.53;;;4.30;;
65234;SDS011;51820;48.374;10.930;2024-01-30T10:40:06;9.73;;;4.22;;
65234;SDS011;51820;48.374;10.930;2024-01-30T10:42:36;11.55;;;4.32;;
65234;SDS011;51820;48.374;10.930;2024-01-30T10:45:06;11.60;;;4.72;;
65234;SDS011;51820;48.374;10.930;2024-01-30T10:47:35;9.90;;;4.03;;
65234;SDS011;51820;48.374;10.930;2024-01-30T10:50:07;8.80;;;3.93;;
65234;SDS011;51820;48.374;10.930;2024-01-30T10:52:37;12.20;;;4.07;;
65234;SDS011;51820;48.374;10.930;2024-01-30T10:55:08;11.95;;;4.20;;
65234;SDS011;51820;48.374;10.930;2024-01-30T10:57:37;10.32;;;4.65;;
65234;SDS011;51820;48.374;10.930;2024-01-30T11:00:07;10.02;;;4.53;;
65234;SDS011;51820;48.374;10.930;2024-01-30T11:02:38;15.10;;;7.20;;
65234;SDS011;51820;48.374;10.930;2024-01-30T11:05:09;12.43;;;5.47;;
65234;SDS011;51820;48.374;10.930;2024-01-30T11:07:38;11.52;;;5.50;;
65234;SDS011;51820;48.374;10.930;2024-01-30T11:10:08;19.00;;;6.60;;
65234;SDS011;51820;48.374;10.930;2024-01-30T11:12:40;9.13;;;4.30;;
65234;SDS011;51820;48.374;10.930;2024-01-30T11:15:11;9.83;;;3.80;;
65234;SDS011;51820;48.374;10.930;2024-01-30T11:17:43;8.43;;;3.83;;
65234;SDS011;51820;48.374;10.930;2024-01-30T11:20:15;9.70;;;3.60;;
65234;SDS011;51820;48.374;10.930;2024-01-30T11:22:46;7.65;;;3.33;;
65234;SDS011;51820;48.374;10.930;2024-01-30T11:25:15;10.98;;;3.95;;
65234;SDS011;51820;48.374;10.930;2024-01-30T11:27:45;11.17;;;4.90;;
65234;SDS011;51820;48.374;10.930;2024-01-30T11:30:21;11.75;;;4.40;;
65234;SDS011;51820;48.374;10.930;2024-01-30T11:33:00;10.15;;;4.20;;
65234;SDS011;51820;48.374;10.930;2024-01-30T11:35:33;13.02;;;4.10;;
65234;SDS011;51820;48.374;10.930;2024-01-30T11:38:04;9.82;;;3.55;;
65234;SDS011;51820;48.374;10.930;2024-01-30T11:40:34;7.53;;;3.40;;
65234;SDS011;51820;48.374;10.930;2024-01-30T11:43:05;11.85;;;3.53;;
65234;SDS011;51820;48.374;10.930;2024-01-30T11:45:35;10.13;;;3.42;;
65234;SDS011;51820;48.374;10.930;2024-01-30T11:48:04;7.28;;;3.17;;
65234;SDS011;51820;48.374;10.930;2024-01-30T11:50:35;11.80;;;3.47;;
65234;SDS011;51820;48.374;10.930;2024-01-30T11:53:06;8.50;;;3.43;;
65234;SDS011;51820;48.374;10.930;2024-01-30T11:55:35;7.72;;;3.30;;
65234;SDS011;51820;48.374;10.930;2024-01-30T11:58:04;8.93;;;3.10;;
65234;SDS011;51820;48.374;10.930;2024-01-30T12:00:33;9.50;;;3.50;;
65234;SDS011;51820;48.374;10.930;2024-01-30T12:03:02;10.40;;;2.80;;
65234;SDS011;51820;48.374;10.930;2024-01-30T12:05:33;11.30;;;5.87;;
65234;SDS011;51820;48.374;10.930;2024-01-30T12:08:04;10.30;;;4.47;;
65234;SDS011;51820;48.374;10.930;2024-01-30T12:10:34;11.88;;;4.80;;
65234;SDS011;51820;48.374;10.930;2024-01-30T12:13:03;11.35;;;3.33;;
65234;SDS011;51820;48.374;10.930;2024-01-30T12:15:31;8.70;;;3.95;;
65234;SDS011;51820;48.374;10.930;2024-01-30T12:18:03;7.63;;;3.03;;
65234;SDS011;51820;48.374;10.930;2024-01-30T12:20:33;8.75;;;3.35;;
65234;SDS011;51820;48.374;10.930;2024-01-30T12:23:04;8.18;;;3.20;;
65234;SDS011;51820;48.374;10.930;2024-01-30T12:25:32;11.43;;;3.50;;
65234;SDS011;51820;48.374;10.930;2024-01-30T12:28:01;8.20;;;3.40;;
65234;SDS011;51820;48.374;10.930;2024-01-30T12:30:30;9.97;;;3.40;;
65234;SDS011;51820;48.374;10.930;2024-01-30T12:32:59;14.95;;;5.50;;
65234;SDS011;51820;48.374;10.930;2024-01-30T12:35:28;11.68;;;4.30;;
65234;SDS011;51820;48.374;10.930;2024-01-30T12:37:59;58.15;;;29.80;;
65234;SDS011;51820;48.374;10.930;2024-01-30T12:40:29;56.00;;;25.25;;
65234;SDS011;51820;48.374;10.930;2024-01-30T12:42:57;9.20;;;4.13;;
65234;SDS011;51820;48.374;10.930;2024-01-30T12:45:26;9.15;;;3.53;;
65234;SDS011;51820;48.374;10.930;2024-01-30T12:47:54;7.60;;;3.28;;
65234;SDS011;51820;48.374;10.930;2024-01-30T12:50:23;7.88;;;3.17;;
65234;SDS011;51820;48.374;10.930;2024-01-30T12:52:51;10.77;;;3.72;;
65234;SDS011;51820;48.374;10.930;2024-01-30T12:55:20;7.67;;;3.10;;
65234;SDS011;51820;48.374;10.930;2024-01-30T12:57:50;7.85;;;3.15;;
65234;SDS011;51820;48.374;10.930;2024-01-30T13:00:18;9.48;;;3.70;;
65234;SDS011;51820;48.374;10.930;2024-01-30T13:02:47;8.65;;;3.50;;
65234;SDS011;51820;48.374;10.930;2024-01-30T13:05:16;9.70;;;3.67;;
65234;SDS011;51820;48.374;10.930;2024-01-30T13:07:44;7.30;;;3.53;;
65234;SDS011;51820;48.374;10.930;2024-01-30T13:10:13;9.27;;;3.83;;
65234;SDS011;51820;48.374;10.930;2024-01-30T13:12:42;12.10;;;4.07;;
65234;SDS011;51820;48.374;10.930;2024-01-30T13:15:12;9.70;;;4.20;;
65234;SDS011;51820;48.374;10.930;2024-01-30T13:17:40;9.40;;;3.90;;
65234;SDS011;51820;48.374;10.930;2024-01-30T13:20:10;9.27;;;4.00;;
65234;SDS011;51820;48.374;10.930;2024-01-30T13:22:41;11.82;;;5.43;;
65234;SDS011;51820;48.374;10.930;2024-01-30T13:25:11;9.65;;;4.55;;
65234;SDS011;51820;48.374;10.930;2024-01-30T13:27:42;12.55;;;4.32;;
65234;SDS011;51820;48.374;10.930;2024-01-30T13:30:12;10.52;;;4.43;;
65234;SDS011;51820;48.374;10.930;2024-01-30T13:32:42;14.43;;;3.90;;
65234;SDS011;51820;48.374;10.930;2024-01-30T13:35:12;14.38;;;4.60;;
65234;SDS011;51820;48.374;10.930;2024-01-30T13:37:41;11.52;;;4.63;;
65234;SDS011;51820;48.374;10.930;2024-01-30T13:40:10;9.70;;;4.43;;
65234;SDS011;51820;48.374;10.930;2024-01-30T13:42:40;11.40;;;4.68;;
65234;SDS011;51820;48.374;10.930;2024-01-30T13:45:09;11.30;;;4.13;;
65234;SDS011;51820;48.374;10.930;2024-01-30T13:47:39;8.45;;;4.40;;
65234;SDS011;51820;48.374;10.930;2024-01-30T13:50:10;10.25;;;4.20;;
65234;SDS011;51820;48.374;10.930;2024-01-30T13:52:45;7.57;;;3.75;;
65234;SDS011;51820;48.374;10.930;2024-01-30T13:55:14;10.15;;;4.50;;
65234;SDS011;51820;48.374;10.930;2024-01-30T13:57:43;9.03;;;4.43;;
65234;SDS011;51820;48.374;10.930;2024-01-30T14:00:14;11.63;;;4.30;;
65234;SDS011;51820;48.374;10.930;2024-01-30T14:06:04;10.90;;;4.45;;
65234;SDS011;51820;48.374;10.930;2024-01-30T14:08:37;9.07;;;4.00;;
65234;SDS011;51820;48.374;10.930;2024-01-30T14:11:05;10.83;;;4.47;;
65234;SDS011;51820;48.374;10.930;2024-01-30T14:13:34;13.35;;;4.47;;
65234;SDS011;51820;48.374;10.930;2024-01-30T14:16:06;9.10;;;4.20;;
65234;SDS011;51820;48.374;10.930;2024-01-30T14:18:35;8.63;;;4.25;;
65234;SDS011;51820;48.374;10.930;2024-01-30T14:21:04;13.00;;;4.40;;
65234;SDS011;51820;48.374;10.930;2024-01-30T14:23:34;9.53;;;4.43;;
65234;SDS011;51820;48.374;10.930;2024-01-30T14:26:02;10.73;;;4.55;;
65234;SDS011;51820;48.374;10.930;2024-01-30T14:28:31;15.70;;;4.85;;
65234;SDS011;51820;48.374;10.930;2024-01-30T14:31:00;10.73;;;4.85;;
65234;SDS011;51820;48.374;10.930;2024-01-30T14:33:28;14.13;;;4.80;;
65234;SDS011;51820;48.374;10.930;2024-01-30T14:35:57;11.90;;;4.63;;
65234;SDS011;51820;48.374;10.930;2024-01-30T14:38:27;11.35;;;5.00;;
65234;SDS011;51820;48.374;10.930;2024-01-30T14:40:55;11.18;;;4.85;;